sensor_id;sensor_type;location;lat;lon;timestamp;P1;durP1;ratioP1;P2;durP2;ratioP2
6376;SDS011;3221;48.858;10.128;2023-04-04T00:00:28;10.30;;;3.13;;
6376;SDS011;3221;48.858;10.128;2023-04-04T00:02:55;3.80;;;3.00;;
6376;SDS011;3221;48.858;10.128;2023-04-04T00:05:22;3.83;;;3.07;;
6376;SDS011;3221;48.858;10.128;2023-04-04T00:07:49;3.10;;;2.80;;
6376;SDS011;3221;48.858;10.128;2023-04-04T00:10:16;3.80;;;2.90;;
6376;SDS011;3221;48.858;10.128;2023-04-04T00:12:42;2.90;;;2.67;;
6376;SDS011;3221;48.858;10.128;2023-04-04T00:15:10;3.47;;;2.97;;
6376;SDS011;3221;48.858;10.128;2023-04-04T00:17:37;3.53;;;3.10;;
6376;SDS011;3221;48.858;10.128;2023-04-04T00:20:04;4.40;;;3.03;;
6376;SDS011;3221;48.858;10.128;2023-04-04T00:22:31;3.20;;;2.80;;
6376;SDS011;3221;48.858;10.128;2023-04-04T00:24:58;3.47;;;2.90;;
6376;SDS011;3221;48.858;10.128;2023-04-04T00:27:26;3.73;;;2.80;;
6376;SDS011;3221;48.858;10.128;2023-04-04T00:29:53;3.10;;;2.80;;
6376;SDS011;3221;48.858;10.128;2023-04-04T00:32:19;4.10;;;2.90;;
6376;SDS011;3221;48.858;10.128;2023-04-04T00:34:53;3.47;;;3.07;;
6376;SDS011;3221;48.858;10.128;2023-04-04T00:37:21;4.60;;;2.90;;
6376;SDS011;3221;48.858;10.128;2023-04-04T00:39:48;4.27;;;2.80;;
6376;SDS011;3221;48.858;10.128;2023-04-04T00:42:15;3.17;;;2.70;;
6376;SDS011;3221;48.858;10.128;2023-04-04T00:44:43;3.73;;;2.90;;
6376;SDS011;3221;48.858;10.128;2023-04-04T00:47:11;3.90;;;2.90;;
6376;SDS011;3221;48.858;10.128;2023-04-04T00:49:38;4.23;;;3.20;;
6376;SDS011;3221;48.858;10.128;2023-04-04T00:52:04;3.70;;;2.93;;
6376;SDS011;3221;48.858;10.128;2023-04-04T00:54:33;5.03;;;3.00;;
6376;SDS011;3221;48.858;10.128;2023-04-04T00:57:01;3.20;;;2.70;;
6376;SDS011;3221;48.858;10.128;2023-04-04T00:59:30;3.13;;;2.83;;
6376;SDS011;3221;48.858;10.128;2023-04-04T01:01:58;3.27;;;2.93;;
6376;SDS011;3221;48.858;10.128;2023-04-04T01:04:26;4.77;;;2.97;;
6376;SDS011;3221;48.858;10.128;2023-04-04T01:06:57;4.80;;;3.40;;
6376;SDS011;3221;48.858;10.128;2023-04-04T01:09:25;4.37;;;2.70;;
6376;SDS011;3221;48.858;10.128;2023-04-04T01:11:54;4.53;;;3.30;;
6376;SDS011;3221;48.858;10.128;2023-04-04T01:14:23;3.50;;;3.20;;
6376;SDS011;3221;48.858;10.128;2023-04-04T01:16:50;5.17;;;3.20;;
6376;SDS011;3221;48.858;10.128;2023-04-04T01:19:21;4.57;;;2.73;;
6376;SDS011;3221;48.858;10.128;2023-04-04T01:21:59;5.37;;;2.87;;
6376;SDS011;3221;48.858;10.128;2023-04-04T01:24:31;4.47;;;3.07;;
6376;SDS011;3221;48.858;10.128;2023-04-04T01:27:02;4.60;;;2.77;;
6376;SDS011;3221;48.858;10.128;2023-04-04T01:29:30;4.17;;;2.70;;
6376;SDS011;3221;48.858;10.128;2023-04-04T01:32:11;3.70;;;3.17;;
6376;SDS011;3221;48.858;10.128;2023-04-04T01:34:43;3.53;;;3.00;;
6376;SDS011;3221;48.858;10.128;2023-04-04T01:42:41;5.13;;;3.27;;
6376;SDS011;3221;48.858;10.128;2023-04-04T01:45:10;4.40;;;3.17;;
6376;SDS011;3221;48.858;10.128;2023-04-04T01:47:38;4.20;;;3.10;;
6376;SDS011;3221;48.858;10.128;2023-04-04T01:50:09;4.33;;;3.10;;
6376;SDS011;3221;48.858;10.128;2023-04-04T01:52:37;3.73;;;3.30;;
6376;SDS011;3221;48.858;10.128;2023-04-04T01:55:04;3.20;;;2.90;;
6376;SDS011;3221;48.858;10.128;2023-04-04T01:57:32;4.50;;;2.80;;
6376;SDS011;3221;48.858;10.128;2023-04-04T01:59:59;3.90;;;3.10;;
6376;SDS011;3221;48.858;10.128;2023-04-04T02:02:28;5.13;;;3.67;;
6376;SDS011;3221;48.858;10.128;2023-04-04T02:04:55;3.77;;;3.00;;
6376;SDS011;3221;48.858;10.128;2023-04-04T02:07:21;3.70;;;3.03;;
6376;SDS011;3221;48.858;10.128;2023-04-04T02:09:49;4.50;;;3.00;;
6376;SDS011;3221;48.858;10.128;2023-04-04T02:12:16;3.53;;;2.90;;
6376;SDS011;3221;48.858;10.128;2023-04-04T02:14:43;3.27;;;2.97;;
6376;SDS011;3221;48.858;10.128;2023-04-04T02:17:11;4.10;;;3.40;;
6376;SDS011;3221;48.858;10.128;2023-04-04T02:19:38;5.97;;;3.20;;
6376;SDS011;3221;48.858;10.128;2023-04-04T02:22:05;5.03;;;3.27;;
6376;SDS011;3221;48.858;10.128;2023-04-04T02:24:32;4.97;;;3.30;;
6376;SDS011;3221;48.858;10.128;2023-04-04T02:27:00;3.80;;;3.10;;
6376;SDS011;3221;48.858;10.128;2023-04-04T02:29:27;3.40;;;3.00;;
6376;SDS011;3221;48.858;10.128;2023-04-04T02:31:54;4.57;;;3.30;;
6376;SDS011;3221;48.858;10.128;2023-04-04T02:34:21;3.30;;;3.00;;
6376;SDS011;3221;48.858;10.128;2023-04-04T02:36:50;4.50;;;3.20;;
6376;SDS011;3221;48.858;10.128;2023-04-04T02:39:19;4.20;;;3.20;;
6376;SDS011;3221;48.858;10.128;2023-04-04T02:41:47;3.73;;;3.40;;
6376;SDS011;3221;48.858;10.128;2023-04-04T02:44:14;4.37;;;3.30;;
6376;SDS011;3221;48.858;10.128;2023-04-04T02:46:41;4.03;;;3.43;;
6376;SDS011;3221;48.858;10.128;2023-04-04T02:49:12;5.33;;;3.00;;
6376;SDS011;3221;48.858;10.128;2023-04-04T02:51:45;3.67;;;3.30;;
6376;SDS011;3221;48.858;10.128;2023-04-04T02:54:13;5.03;;;3.30;;
6376;SDS011;3221;48.858;10.128;2023-04-04T02:56:43;4.37;;;3.40;;
6376;SDS011;3221;48.858;10.128;2023-04-04T02:59:09;3.87;;;3.13;;
6376;SDS011;3221;48.858;10.128;2023-04-04T03:01:36;6.97;;;3.60;;
6376;SDS011;3221;48.858;10.128;2023-04-04T03:04:03;3.57;;;3.17;;
6376;SDS011;3221;48.858;10.128;2023-04-04T03:06:32;5.00;;;3.73;;
6376;SDS011;3221;48.858;10.128;2023-04-04T03:08:59;3.50;;;3.20;;
6376;SDS011;3221;48.858;10.128;2023-04-04T03:11:27;4.80;;;3.27;;
6376;SDS011;3221;48.858;10.128;2023-04-04T03:13:54;5.20;;;3.50;;
6376;SDS011;3221;48.858;10.128;2023-04-04T03:16:30;4.17;;;3.43;;
6376;SDS011;3221;48.858;10.128;2023-04-04T03:18:57;4.03;;;3.37;;
6376;SDS011;3221;48.858;10.128;2023-04-04T03:21:24;4.23;;;3.47;;
6376;SDS011;3221;48.858;10.128;2023-04-04T03:23:54;5.23;;;3.50;;
6376;SDS011;3221;48.858;10.128;2023-04-04T03:26:22;3.90;;;3.37;;
6376;SDS011;3221;48.858;10.128;2023-04-04T03:28:51;3.83;;;3.40;;
6376;SDS011;3221;48.858;10.128;2023-04-04T03:31:20;4.10;;;3.40;;
6376;SDS011;3221;48.858;10.128;2023-04-04T03:33:47;5.93;;;3.50;;
6376;SDS011;3221;48.858;10.128;2023-04-04T03:36:14;5.07;;;3.77;;
6376;SDS011;3221;48.858;10.128;2023-04-04T03:38:45;4.23;;;3.57;;
6376;SDS011;3221;48.858;10.128;2023-04-04T03:41:12;5.20;;;4.10;;
6376;SDS011;3221;48.858;10.128;2023-04-04T03:43:39;4.63;;;3.57;;
6376;SDS011;3221;48.858;10.128;2023-04-04T03:46:06;4.83;;;3.60;;
6376;SDS011;3221;48.858;10.128;2023-04-04T03:48:33;5.07;;;3.77;;
6376;SDS011;3221;48.858;10.128;2023-04-04T03:51:03;4.23;;;3.83;;
6376;SDS011;3221;48.858;10.128;2023-04-04T03:53:30;5.43;;;4.27;;
6376;SDS011;3221;48.858;10.128;2023-04-04T03:55:57;5.87;;;4.17;;
6376;SDS011;3221;48.858;10.128;2023-04-04T03:58:25;4.67;;;4.00;;
6376;SDS011;3221;48.858;10.128;2023-04-04T04:00:54;5.00;;;4.00;;
6376;SDS011;3221;48.858;10.128;2023-04-04T04:03:22;4.97;;;4.00;;
6376;SDS011;3221;48.858;10.128;2023-04-04T04:05:49;4.30;;;3.90;;
6376;SDS011;3221;48.858;10.128;2023-04-04T04:08:16;4.17;;;3.73;;
6376;SDS011;3221;48.858;10.128;2023-04-04T04:10:43;4.80;;;4.00;;
6376;SDS011;3221;48.858;10.128;2023-04-04T04:13:10;4.33;;;3.83;;
6376;SDS011;3221;48.858;10.128;2023-04-04T04:15:37;4.43;;;3.63;;
6376;SDS011;3221;48.858;10.128;2023-04-04T04:18:09;4.30;;;3.90;;
6376;SDS011;3221;48.858;10.128;2023-04-04T04:20:36;6.60;;;4.00;;
6376;SDS011;3221;48.858;10.128;2023-04-04T04:23:03;4.43;;;3.57;;
6376;SDS011;3221;48.858;10.128;2023-04-04T04:25:30;5.43;;;3.80;;
6376;SDS011;3221;48.858;10.128;2023-04-04T04:28:09;4.50;;;3.80;;
6376;SDS011;3221;48.858;10.128;2023-04-04T04:30:36;4.73;;;3.83;;
6376;SDS011;3221;48.858;10.128;2023-04-04T04:33:03;4.73;;;3.37;;
6376;SDS011;3221;48.858;10.128;2023-04-04T04:35:37;4.17;;;3.77;;
6376;SDS011;3221;48.858;10.128;2023-04-04T04:38:06;4.67;;;3.60;;
6376;SDS011;3221;48.858;10.128;2023-04-04T04:40:34;4.70;;;3.53;;
6376;SDS011;3221;48.858;10.128;2023-04-04T04:43:07;4.53;;;3.70;;
6376;SDS011;3221;48.858;10.128;2023-04-04T04:45:34;5.70;;;3.87;;
6376;SDS011;3221;48.858;10.128;2023-04-04T04:48:07;5.23;;;3.73;;
6376;SDS011;3221;48.858;10.128;2023-04-04T04:50:45;4.70;;;3.93;;
6376;SDS011;3221;48.858;10.128;2023-04-04T04:53:16;6.27;;;3.93;;
6376;SDS011;3221;48.858;10.128;2023-04-04T04:55:45;4.03;;;3.53;;
6376;SDS011;3221;48.858;10.128;2023-04-04T04:58:12;5.13;;;3.83;;
6376;SDS011;3221;48.858;10.128;2023-04-04T05:00:44;5.60;;;3.80;;
6376;SDS011;3221;48.858;10.128;2023-04-04T05:03:11;5.27;;;3.57;;
6376;SDS011;3221;48.858;10.128;2023-04-04T05:05:45;6.03;;;4.20;;
6376;SDS011;3221;48.858;10.128;2023-04-04T05:08:13;6.07;;;4.57;;
6376;SDS011;3221;48.858;10.128;2023-04-04T05:11:01;4.13;;;3.70;;
6376;SDS011;3221;48.858;10.128;2023-04-04T05:13:31;5.13;;;3.67;;
6376;SDS011;3221;48.858;10.128;2023-04-04T05:15:58;5.33;;;3.73;;
6376;SDS011;3221;48.858;10.128;2023-04-04T05:18:26;4.30;;;3.90;;
6376;SDS011;3221;48.858;10.128;2023-04-04T05:20:54;4.67;;;3.60;;
6376;SDS011;3221;48.858;10.128;2023-04-04T05:23:25;4.10;;;3.70;;
6376;SDS011;3221;48.858;10.128;2023-04-04T05:25:52;5.23;;;3.90;;
6376;SDS011;3221;48.858;10.128;2023-04-04T05:28:21;4.83;;;3.90;;
6376;SDS011;3221;48.858;10.128;2023-04-04T05:30:51;4.37;;;3.97;;
6376;SDS011;3221;48.858;10.128;2023-04-04T05:33:23;4.97;;;3.73;;
6376;SDS011;3221;48.858;10.128;2023-04-04T05:36:00;4.07;;;3.67;;
6376;SDS011;3221;48.858;10.128;2023-04-04T05:38:29;5.23;;;3.90;;
6376;SDS011;3221;48.858;10.128;2023-04-04T05:40:56;4.87;;;3.67;;
6376;SDS011;3221;48.858;10.128;2023-04-04T05:43:24;5.33;;;3.70;;
6376;SDS011;3221;48.858;10.128;2023-04-04T05:45:59;4.77;;;3.60;;
6376;SDS011;3221;48.858;10.128;2023-04-04T05:48:31;4.67;;;3.50;;
6376;SDS011;3221;48.858;10.128;2023-04-04T05:50:58;7.33;;;3.87;;
6376;SDS011;3221;48.858;10.128;2023-04-04T05:53:52;6.63;;;3.43;;
6376;SDS011;3221;48.858;10.128;2023-04-04T05:56:24;3.70;;;3.30;;
6376;SDS011;3221;48.858;10.128;2023-04-04T05:58:53;5.00;;;3.60;;
6376;SDS011;3221;48.858;10.128;2023-04-04T06:01:21;5.13;;;3.50;;
6376;SDS011;3221;48.858;10.128;2023-04-04T06:03:51;4.03;;;3.70;;
6376;SDS011;3221;48.858;10.128;2023-04-04T06:06:23;5.67;;;3.57;;
6376;SDS011;3221;48.858;10.128;2023-04-04T06:08:50;4.83;;;3.60;;
6376;SDS011;3221;48.858;10.128;2023-04-04T06:11:19;3.90;;;3.50;;
6376;SDS011;3221;48.858;10.128;2023-04-04T06:13:52;5.20;;;3.60;;
6376;SDS011;3221;48.858;10.128;2023-04-04T06:16:20;3.60;;;3.07;;
6376;SDS011;3221;48.858;10.128;2023-04-04T06:18:48;6.47;;;3.80;;
6376;SDS011;3221;48.858;10.128;2023-04-04T06:21:15;3.90;;;3.43;;
6376;SDS011;3221;48.858;10.128;2023-04-04T06:23:43;4.77;;;3.50;;
6376;SDS011;3221;48.858;10.128;2023-04-04T06:26:09;4.40;;;3.60;;
6376;SDS011;3221;48.858;10.128;2023-04-04T06:28:46;6.97;;;3.00;;
6376;SDS011;3221;48.858;10.128;2023-04-04T06:31:17;4.93;;;3.60;;
6376;SDS011;3221;48.858;10.128;2023-04-04T06:33:45;5.30;;;3.90;;
6376;SDS011;3221;48.858;10.128;2023-04-04T06:36:13;4.33;;;3.40;;
6376;SDS011;3221;48.858;10.128;2023-04-04T06:38:41;5.77;;;3.90;;
6376;SDS011;3221;48.858;10.128;2023-04-04T06:41:14;5.13;;;3.80;;
6376;SDS011;3221;48.858;10.128;2023-04-04T06:43:43;4.63;;;3.30;;
6376;SDS011;3221;48.858;10.128;2023-04-04T06:46:14;6.13;;;3.97;;
6376;SDS011;3221;48.858;10.128;2023-04-04T06:48:40;4.23;;;3.40;;
6376;SDS011;3221;48.858;10.128;2023-04-04T06:51:07;4.13;;;3.47;;
6376;SDS011;3221;48.858;10.128;2023-04-04T06:53:38;4.07;;;3.60;;
6376;SDS011;3221;48.858;10.128;2023-04-04T06:56:05;5.93;;;3.20;;
6376;SDS011;3221;48.858;10.128;2023-04-04T06:58:32;5.60;;;3.63;;
6376;SDS011;3221;48.858;10.128;2023-04-04T07:01:00;4.70;;;3.70;;
6376;SDS011;3221;48.858;10.128;2023-04-04T07:03:27;6.33;;;4.03;;
6376;SDS011;3221;48.858;10.128;2023-04-04T07:05:54;6.50;;;3.67;;
6376;SDS011;3221;48.858;10.128;2023-04-04T07:08:21;4.17;;;3.60;;
6376;SDS011;3221;48.858;10.128;2023-04-04T07:10:48;4.67;;;3.63;;
6376;SDS011;3221;48.858;10.128;2023-04-04T07:13:15;3.90;;;3.20;;
6376;SDS011;3221;48.858;10.128;2023-04-04T07:15:44;4.40;;;3.73;;
6376;SDS011;3221;48.858;10.128;2023-04-04T07:18:14;4.47;;;3.23;;
6376;SDS011;3221;48.858;10.128;2023-04-04T07:20:41;5.23;;;3.47;;
6376;SDS011;3221;48.858;10.128;2023-04-04T07:23:09;5.57;;;4.00;;
6376;SDS011;3221;48.858;10.128;2023-04-04T07:25:38;4.03;;;3.17;;
6376;SDS011;3221;48.858;10.128;2023-04-04T07:28:05;4.67;;;3.50;;
6376;SDS011;3221;48.858;10.128;2023-04-04T07:30:38;6.57;;;3.53;;
6376;SDS011;3221;48.858;10.128;2023-04-04T07:33:06;5.20;;;3.60;;
6376;SDS011;3221;48.858;10.128;2023-04-04T07:35:33;6.97;;;3.30;;
6376;SDS011;3221;48.858;10.128;2023-04-04T07:38:00;6.37;;;3.50;;
6376;SDS011;3221;48.858;10.128;2023-04-04T07:40:28;4.10;;;3.57;;
6376;SDS011;3221;48.858;10.128;2023-04-04T07:42:55;3.87;;;3.40;;
6376;SDS011;3221;48.858;10.128;2023-04-04T07:45:22;4.73;;;3.60;;
6376;SDS011;3221;48.858;10.128;2023-04-04T07:47:49;5.07;;;3.43;;
6376;SDS011;3221;48.858;10.128;2023-04-04T07:50:17;6.37;;;3.90;;
6376;SDS011;3221;48.858;10.128;2023-04-04T07:52:48;7.03;;;3.57;;
6376;SDS011;3221;48.858;10.128;2023-04-04T07:55:19;5.23;;;3.73;;
6376;SDS011;3221;48.858;10.128;2023-04-04T07:57:50;4.50;;;3.43;;
6376;SDS011;3221;48.858;10.128;2023-04-04T08:00:18;5.17;;;3.60;;
6376;SDS011;3221;48.858;10.128;2023-04-04T08:02:54;5.80;;;3.47;;
6376;SDS011;3221;48.858;10.128;2023-04-04T08:05:21;7.03;;;3.80;;
6376;SDS011;3221;48.858;10.128;2023-04-04T08:07:49;5.23;;;3.70;;
6376;SDS011;3221;48.858;10.128;2023-04-04T08:10:16;6.83;;;3.90;;
6376;SDS011;3221;48.858;10.128;2023-04-04T08:12:44;4.10;;;3.50;;
6376;SDS011;3221;48.858;10.128;2023-04-04T08:15:11;4.93;;;4.10;;
6376;SDS011;3221;48.858;10.128;2023-04-04T08:17:38;7.10;;;4.03;;
6376;SDS011;3221;48.858;10.128;2023-04-04T08:20:06;5.70;;;3.90;;
6376;SDS011;3221;48.858;10.128;2023-04-04T08:22:33;5.60;;;3.97;;
6376;SDS011;3221;48.858;10.128;2023-04-04T08:24:59;6.53;;;3.80;;
6376;SDS011;3221;48.858;10.128;2023-04-04T08:27:26;4.57;;;4.07;;
6376;SDS011;3221;48.858;10.128;2023-04-04T08:29:53;5.70;;;4.13;;
6376;SDS011;3221;48.858;10.128;2023-04-04T08:32:20;5.90;;;4.10;;
6376;SDS011;3221;48.858;10.128;2023-04-04T08:34:48;5.97;;;4.20;;
6376;SDS011;3221;48.858;10.128;2023-04-04T08:37:15;5.03;;;3.80;;
6376;SDS011;3221;48.858;10.128;2023-04-04T08:39:42;5.00;;;4.23;;
6376;SDS011;3221;48.858;10.128;2023-04-04T08:42:09;6.30;;;4.07;;
6376;SDS011;3221;48.858;10.128;2023-04-04T08:44:37;5.60;;;3.90;;
6376;SDS011;3221;48.858;10.128;2023-04-04T08:47:07;5.80;;;3.83;;
6376;SDS011;3221;48.858;10.128;2023-04-04T08:49:40;4.67;;;3.80;;
6376;SDS011;3221;48.858;10.128;2023-04-04T08:52:10;5.00;;;3.77;;
6376;SDS011;3221;48.858;10.128;2023-04-04T08:54:39;5.13;;;4.10;;
6376;SDS011;3221;48.858;10.128;2023-04-04T08:57:07;8.20;;;4.03;;
6376;SDS011;3221;48.858;10.128;2023-04-04T08:59:33;8.77;;;4.00;;
6376;SDS011;3221;48.858;10.128;2023-04-04T09:04:34;5.30;;;3.83;;
6376;SDS011;3221;48.858;10.128;2023-04-04T09:07:01;8.13;;;3.70;;
6376;SDS011;3221;48.858;10.128;2023-04-04T09:09:30;9.13;;;3.90;;
6376;SDS011;3221;48.858;10.128;2023-04-04T09:11:59;4.53;;;3.70;;
6376;SDS011;3221;48.858;10.128;2023-04-04T09:14:28;4.00;;;3.40;;
6376;SDS011;3221;48.858;10.128;2023-04-04T09:16:56;5.73;;;4.27;;
6376;SDS011;3221;48.858;10.128;2023-04-04T09:19:23;5.30;;;3.70;;
6376;SDS011;3221;48.858;10.128;2023-04-04T09:21:51;5.80;;;3.90;;
6376;SDS011;3221;48.858;10.128;2023-04-04T09:24:18;5.63;;;3.90;;
6376;SDS011;3221;48.858;10.128;2023-04-04T09:26:46;4.20;;;3.50;;
6376;SDS011;3221;48.858;10.128;2023-04-04T09:29:20;5.57;;;3.97;;
6376;SDS011;3221;48.858;10.128;2023-04-04T09:31:47;5.20;;;3.80;;
6376;SDS011;3221;48.858;10.128;2023-04-04T09:34:16;4.70;;;4.30;;
6376;SDS011;3221;48.858;10.128;2023-04-04T09:36:44;4.73;;;3.70;;
6376;SDS011;3221;48.858;10.128;2023-04-04T09:39:12;5.63;;;3.83;;
6376;SDS011;3221;48.858;10.128;2023-04-04T09:41:43;5.37;;;3.70;;
6376;SDS011;3221;48.858;10.128;2023-04-04T09:44:11;4.80;;;3.80;;
6376;SDS011;3221;48.858;10.128;2023-04-04T09:46:38;5.17;;;3.80;;
6376;SDS011;3221;48.858;10.128;2023-04-04T09:49:09;4.40;;;3.73;;
6376;SDS011;3221;48.858;10.128;2023-04-04T09:51:38;5.93;;;3.60;;
6376;SDS011;3221;48.858;10.128;2023-04-04T09:54:10;5.10;;;3.53;;
6376;SDS011;3221;48.858;10.128;2023-04-04T09:56:55;4.23;;;3.83;;
6376;SDS011;3221;48.858;10.128;2023-04-04T09:59:22;5.17;;;3.97;;
6376;SDS011;3221;48.858;10.128;2023-04-04T10:01:50;5.10;;;3.87;;
6376;SDS011;3221;48.858;10.128;2023-04-04T10:04:19;5.03;;;3.83;;
6376;SDS011;3221;48.858;10.128;2023-04-04T10:06:46;4.43;;;3.67;;
6376;SDS011;3221;48.858;10.128;2023-04-04T10:09:14;5.23;;;3.83;;
6376;SDS011;3221;48.858;10.128;2023-04-04T10:11:41;4.73;;;3.63;;
6376;SDS011;3221;48.858;10.128;2023-04-04T10:14:08;5.77;;;3.67;;
6376;SDS011;3221;48.858;10.128;2023-04-04T10:16:35;4.77;;;3.87;;
6376;SDS011;3221;48.858;10.128;2023-04-04T10:19:03;5.70;;;3.87;;
6376;SDS011;3221;48.858;10.128;2023-04-04T10:21:33;4.43;;;3.63;;
6376;SDS011;3221;48.858;10.128;2023-04-04T10:24:00;4.60;;;3.83;;
6376;SDS011;3221;48.858;10.128;2023-04-04T10:26:34;4.13;;;3.43;;
6376;SDS011;3221;48.858;10.128;2023-04-04T10:29:02;4.30;;;3.90;;
6376;SDS011;3221;48.858;10.128;2023-04-04T10:31:31;5.30;;;3.73;;
6376;SDS011;3221;48.858;10.128;2023-04-04T10:34:09;4.13;;;3.40;;
6376;SDS011;3221;48.858;10.128;2023-04-04T10:39:16;5.90;;;3.97;;
6376;SDS011;3221;48.858;10.128;2023-04-04T10:41:50;5.23;;;3.87;;
6376;SDS011;3221;48.858;10.128;2023-04-04T10:46:48;7.23;;;3.90;;
6376;SDS011;3221;48.858;10.128;2023-04-04T10:49:19;4.27;;;3.77;;
6376;SDS011;3221;48.858;10.128;2023-04-04T10:51:48;5.13;;;3.97;;
6376;SDS011;3221;48.858;10.128;2023-04-04T10:54:22;4.13;;;3.73;;
6376;SDS011;3221;48.858;10.128;2023-04-04T10:56:51;5.40;;;3.90;;
6376;SDS011;3221;48.858;10.128;2023-04-04T10:59:18;5.77;;;3.77;;
6376;SDS011;3221;48.858;10.128;2023-04-04T11:01:51;5.10;;;4.00;;
6376;SDS011;3221;48.858;10.128;2023-04-04T11:04:32;7.20;;;4.03;;
6376;SDS011;3221;48.858;10.128;2023-04-04T11:07:08;5.57;;;3.90;;
6376;SDS011;3221;48.858;10.128;2023-04-04T11:09:52;4.97;;;3.73;;
6376;SDS011;3221;48.858;10.128;2023-04-04T11:12:31;6.63;;;4.30;;
6376;SDS011;3221;48.858;10.128;2023-04-04T11:17:42;4.00;;;3.60;;
6376;SDS011;3221;48.858;10.128;2023-04-04T11:20:15;3.60;;;3.30;;
6376;SDS011;3221;48.858;10.128;2023-04-04T11:22:43;4.80;;;3.70;;
6376;SDS011;3221;48.858;10.128;2023-04-04T11:27:53;4.17;;;3.60;;
6376;SDS011;3221;48.858;10.128;2023-04-04T11:30:21;5.63;;;4.03;;
6376;SDS011;3221;48.858;10.128;2023-04-04T11:32:49;4.63;;;3.87;;
6376;SDS011;3221;48.858;10.128;2023-04-04T11:35:31;4.27;;;3.87;;
6376;SDS011;3221;48.858;10.128;2023-04-04T11:37:58;6.37;;;4.00;;
6376;SDS011;3221;48.858;10.128;2023-04-04T11:40:33;5.60;;;4.07;;
6376;SDS011;3221;48.858;10.128;2023-04-04T11:43:05;5.10;;;3.90;;
6376;SDS011;3221;48.858;10.128;2023-04-04T11:45:35;5.03;;;4.20;;
6376;SDS011;3221;48.858;10.128;2023-04-04T11:48:04;5.47;;;3.87;;
6376;SDS011;3221;48.858;10.128;2023-04-04T11:50:37;4.03;;;3.63;;
6376;SDS011;3221;48.858;10.128;2023-04-04T11:53:08;5.97;;;3.77;;
6376;SDS011;3221;48.858;10.128;2023-04-04T11:55:43;5.97;;;4.20;;
6376;SDS011;3221;48.858;10.128;2023-04-04T11:58:13;5.60;;;4.10;;
6376;SDS011;3221;48.858;10.128;2023-04-04T12:00:42;5.37;;;3.97;;
6376;SDS011;3221;48.858;10.128;2023-04-04T12:03:10;4.90;;;4.07;;
6376;SDS011;3221;48.858;10.128;2023-04-04T12:05:38;4.50;;;4.00;;
6376;SDS011;3221;48.858;10.128;2023-04-04T12:08:08;6.23;;;4.13;;
6376;SDS011;3221;48.858;10.128;2023-04-04T12:10:37;5.47;;;3.87;;
6376;SDS011;3221;48.858;10.128;2023-04-04T12:13:06;4.33;;;4.00;;
6376;SDS011;3221;48.858;10.128;2023-04-04T12:15:34;5.10;;;3.93;;
6376;SDS011;3221;48.858;10.128;2023-04-04T12:18:06;5.17;;;4.20;;
6376;SDS011;3221;48.858;10.128;2023-04-04T12:20:37;6.17;;;4.07;;
6376;SDS011;3221;48.858;10.128;2023-04-04T12:23:05;4.30;;;3.90;;
6376;SDS011;3221;48.858;10.128;2023-04-04T12:25:32;4.63;;;4.00;;
6376;SDS011;3221;48.858;10.128;2023-04-04T12:27:59;4.73;;;4.00;;
6376;SDS011;3221;48.858;10.128;2023-04-04T12:30:29;4.97;;;3.90;;
6376;SDS011;3221;48.858;10.128;2023-04-04T12:32:56;6.00;;;3.90;;
6376;SDS011;3221;48.858;10.128;2023-04-04T12:35:24;5.20;;;4.27;;
6376;SDS011;3221;48.858;10.128;2023-04-04T12:38:01;5.93;;;4.00;;
6376;SDS011;3221;48.858;10.128;2023-04-04T12:40:36;5.10;;;4.10;;
6376;SDS011;3221;48.858;10.128;2023-04-04T12:43:07;5.10;;;4.20;;
6376;SDS011;3221;48.858;10.128;2023-04-04T12:45:38;5.80;;;4.07;;
6376;SDS011;3221;48.858;10.128;2023-04-04T12:48:08;5.60;;;3.90;;
6376;SDS011;3221;48.858;10.128;2023-04-04T12:50:49;4.30;;;3.90;;
6376;SDS011;3221;48.858;10.128;2023-04-04T12:53:24;7.57;;;4.23;;
6376;SDS011;3221;48.858;10.128;2023-04-04T12:55:58;4.23;;;3.77;;
6376;SDS011;3221;48.858;10.128;2023-04-04T12:58:27;5.63;;;3.93;;
6376;SDS011;3221;48.858;10.128;2023-04-04T13:00:56;4.40;;;3.80;;
6376;SDS011;3221;48.858;10.128;2023-04-04T13:03:25;6.10;;;4.07;;
6376;SDS011;3221;48.858;10.128;2023-04-04T13:05:53;4.77;;;3.57;;
6376;SDS011;3221;48.858;10.128;2023-04-04T13:08:20;5.93;;;3.90;;
6376;SDS011;3221;48.858;10.128;2023-04-04T13:10:57;7.90;;;4.10;;
6376;SDS011;3221;48.858;10.128;2023-04-04T13:16:09;5.07;;;4.03;;
6376;SDS011;3221;48.858;10.128;2023-04-04T13:18:39;5.10;;;3.80;;
6376;SDS011;3221;48.858;10.128;2023-04-04T13:21:09;6.03;;;4.10;;
6376;SDS011;3221;48.858;10.128;2023-04-04T13:23:37;4.57;;;3.83;;
6376;SDS011;3221;48.858;10.128;2023-04-04T13:26:06;5.20;;;3.80;;
6376;SDS011;3221;48.858;10.128;2023-04-04T13:28:34;5.10;;;4.07;;
6376;SDS011;3221;48.858;10.128;2023-04-04T13:31:02;4.93;;;4.23;;
6376;SDS011;3221;48.858;10.128;2023-04-04T13:33:30;5.07;;;4.03;;
6376;SDS011;3221;48.858;10.128;2023-04-04T13:35:57;7.53;;;3.93;;
6376;SDS011;3221;48.858;10.128;2023-04-04T13:38:25;5.20;;;4.20;;
6376;SDS011;3221;48.858;10.128;2023-04-04T13:40:53;5.63;;;4.07;;
6376;SDS011;3221;48.858;10.128;2023-04-04T13:43:22;6.10;;;4.17;;
6376;SDS011;3221;48.858;10.128;2023-04-04T13:45:49;5.93;;;4.00;;
6376;SDS011;3221;48.858;10.128;2023-04-04T13:48:18;5.87;;;4.10;;
6376;SDS011;3221;48.858;10.128;2023-04-04T13:50:45;5.37;;;4.13;;
6376;SDS011;3221;48.858;10.128;2023-04-04T13:53:16;4.40;;;3.70;;
6376;SDS011;3221;48.858;10.128;2023-04-04T13:55:43;5.30;;;4.27;;
6376;SDS011;3221;48.858;10.128;2023-04-04T13:58:31;5.23;;;3.70;;
6376;SDS011;3221;48.858;10.128;2023-04-04T14:00:58;4.67;;;4.13;;
6376;SDS011;3221;48.858;10.128;2023-04-04T14:03:29;6.20;;;3.70;;
6376;SDS011;3221;48.858;10.128;2023-04-04T14:05:56;5.33;;;3.43;;
6376;SDS011;3221;48.858;10.128;2023-04-04T14:08:29;4.67;;;3.43;;
6376;SDS011;3221;48.858;10.128;2023-04-04T14:10:56;5.07;;;4.00;;
6376;SDS011;3221;48.858;10.128;2023-04-04T14:13:23;5.20;;;4.27;;
6376;SDS011;3221;48.858;10.128;2023-04-04T14:15:51;4.40;;;3.53;;
6376;SDS011;3221;48.858;10.128;2023-04-04T14:18:18;4.93;;;4.23;;
6376;SDS011;3221;48.858;10.128;2023-04-04T14:20:45;4.33;;;3.73;;
6376;SDS011;3221;48.858;10.128;2023-04-04T14:23:12;5.37;;;3.80;;
6376;SDS011;3221;48.858;10.128;2023-04-04T14:25:39;5.97;;;3.90;;
6376;SDS011;3221;48.858;10.128;2023-04-04T14:28:07;7.07;;;4.20;;
6376;SDS011;3221;48.858;10.128;2023-04-04T14:30:34;4.70;;;4.03;;
6376;SDS011;3221;48.858;10.128;2023-04-04T14:33:01;6.97;;;4.17;;
6376;SDS011;3221;48.858;10.128;2023-04-04T14:35:28;4.97;;;3.73;;
6376;SDS011;3221;48.858;10.128;2023-04-04T14:37:55;4.53;;;3.87;;
6376;SDS011;3221;48.858;10.128;2023-04-04T14:40:22;4.40;;;3.97;;
6376;SDS011;3221;48.858;10.128;2023-04-04T14:42:49;6.67;;;4.27;;
6376;SDS011;3221;48.858;10.128;2023-04-04T14:45:16;4.23;;;3.83;;
6376;SDS011;3221;48.858;10.128;2023-04-04T14:47:43;5.13;;;4.00;;
6376;SDS011;3221;48.858;10.128;2023-04-04T14:50:10;5.33;;;4.17;;
6376;SDS011;3221;48.858;10.128;2023-04-04T14:52:38;4.30;;;3.90;;
6376;SDS011;3221;48.858;10.128;2023-04-04T14:55:05;6.43;;;3.93;;
6376;SDS011;3221;48.858;10.128;2023-04-04T14:57:35;6.30;;;3.90;;
6376;SDS011;3221;48.858;10.128;2023-04-04T15:00:22;9.63;;;4.93;;
6376;SDS011;3221;48.858;10.128;2023-04-04T15:02:49;4.53;;;3.93;;
6376;SDS011;3221;48.858;10.128;2023-04-04T15:05:17;6.23;;;4.23;;
6376;SDS011;3221;48.858;10.128;2023-04-04T15:07:45;7.97;;;4.17;;
6376;SDS011;3221;48.858;10.128;2023-04-04T15:10:12;6.67;;;4.40;;
6376;SDS011;3221;48.858;10.128;2023-04-04T15:12:39;6.53;;;4.23;;
6376;SDS011;3221;48.858;10.128;2023-04-04T15:15:06;4.70;;;4.03;;
6376;SDS011;3221;48.858;10.128;2023-04-04T15:17:33;5.83;;;4.50;;
6376;SDS011;3221;48.858;10.128;2023-04-04T15:20:01;5.63;;;4.10;;
6376;SDS011;3221;48.858;10.128;2023-04-04T15:22:28;9.97;;;4.90;;
6376;SDS011;3221;48.858;10.128;2023-04-04T15:24:56;5.90;;;4.67;;
6376;SDS011;3221;48.858;10.128;2023-04-04T15:27:22;5.87;;;4.63;;
6376;SDS011;3221;48.858;10.128;2023-04-04T15:29:49;5.60;;;4.93;;
6376;SDS011;3221;48.858;10.128;2023-04-04T15:32:17;5.00;;;4.30;;